sensor_id;sensor_type;location;lat;lon;timestamp;temperature;humidity
53422;DHT22;39319;52.944;5.928;2023-08-07T00:00:34;17.60;99.90
53422;DHT22;39319;52.944;5.928;2023-08-07T00:03:00;17.60;99.90
53422;DHT22;39319;52.944;5.928;2023-08-07T00:05:26;17.60;99.90
53422;DHT22;39319;52.944;5.928;2023-08-07T00:07:52;17.60;99.90
53422;DHT22;39319;52.944;5.928;2023-08-07T00:10:18;17.60;99.90
53422;DHT22;39319;52.944;5.928;2023-08-07T00:12:44;17.60;99.90
53422;DHT22;39319;52.944;5.928;2023-08-07T00:15:09;17.60;99.90
53422;DHT22;39319;52.944;5.928;2023-08-07T00:17:36;17.60;99.90
53422;DHT22;39319;52.944;5.928;2023-08-07T00:20:03;17.60;99.90
53422;DHT22;39319;52.944;5.928;2023-08-07T00:22:28;17.60;99.90
53422;DHT22;39319;52.944;5.928;2023-08-07T00:24:54;17.50;99.90
53422;DHT22;39319;52.944;5.928;2023-08-07T00:27:20;17.50;99.90
53422;DHT22;39319;52.944;5.928;2023-08-07T00:29:45;17.40;99.90
53422;DHT22;39319;52.944;5.928;2023-08-07T00:32:11;17.40;99.90
53422;DHT22;39319;52.944;5.928;2023-08-07T00:34:37;17.30;99.90
53422;DHT22;39319;52.944;5.928;2023-08-07T00:37:03;17.40;99.90
53422;DHT22;39319;52.944;5.928;2023-08-07T00:39:28;17.40;99.90
53422;DHT22;39319;52.944;5.928;2023-08-07T00:41:54;17.30;99.90
53422;DHT22;39319;52.944;5.928;2023-08-07T00:44:20;17.30;99.90
53422;DHT22;39319;52.944;5.928;2023-08-07T00:46:46;17.30;99.90
53422;DHT22;39319;52.944;5.928;2023-08-07T00:49:12;17.30;99.90
53422;DHT22;39319;52.944;5.928;2023-08-07T00:51:39;17.30;99.90
53422;DHT22;39319;52.944;5.928;2023-08-07T00:54:05;17.20;99.90
53422;DHT22;39319;52.944;5.928;2023-08-07T00:56:33;17.30;99.90
53422;DHT22;39319;52.944;5.928;2023-08-07T00:58:59;17.30;99.90
53422;DHT22;39319;52.944;5.928;2023-08-07T01:01:26;17.20;99.90
53422;DHT22;39319;52.944;5.928;2023-08-07T01:03:51;17.30;99.90
53422;DHT22;39319;52.944;5.928;2023-08-07T01:06:17;17.30;99.90
53422;DHT22;39319;52.944;5.928;2023-08-07T01:08:44;17.30;99.90
53422;DHT22;39319;52.944;5.928;2023-08-07T01:16:59;17.30;99.90
53422;DHT22;39319;52.944;5.928;2023-08-07T01:19:27;17.30;99.90
53422;DHT22;39319;52.944;5.928;2023-08-07T01:22:10;17.30;99.90
53422;DHT22;39319;52.944;5.928;2023-08-07T01:24:37;17.20;99.90
53422;DHT22;39319;52.944;5.928;2023-08-07T01:32:19;17.20;99.90
53422;DHT22;39319;52.944;5.928;2023-08-07T01:34:48;17.30;99.90
53422;DHT22;39319;52.944;5.928;2023-08-07T01:37:17;17.20;99.90
53422;DHT22;39319;52.944;5.928;2023-08-07T01:39:43;17.20;99.90
53422;DHT22;39319;52.944;5.928;2023-08-07T01:42:10;17.20;99.90
53422;DHT22;39319;52.944;5.928;2023-08-07T01:44:36;17.20;99.90
53422;DHT22;39319;52.944;5.928;2023-08-07T01:47:03;17.20;99.90
53422;DHT22;39319;52.944;5.928;2023-08-07T01:49:29;17.10;99.90
53422;DHT22;39319;52.944;5.928;2023-08-07T01:51:54;17.10;99.90
53422;DHT22;39319;52.944;5.928;2023-08-07T01:54:20;17.10;99.90
53422;DHT22;39319;52.944;5.928;2023-08-07T01:56:46;17.10;99.90
53422;DHT22;39319;52.944;5.928;2023-08-07T01:59:11;17.10;99.90
53422;DHT22;39319;52.944;5.928;2023-08-07T02:01:37;17.00;99.90
53422;DHT22;39319;52.944;5.928;2023-08-07T02:04:03;17.10;99.90
53422;DHT22;39319;52.944;5.928;2023-08-07T02:06:29;17.10;99.90
53422;DHT22;39319;52.944;5.928;2023-08-07T02:08:54;17.00;99.90
53422;DHT22;39319;52.944;5.928;2023-08-07T02:11:20;17.00;99.90
53422;DHT22;39319;52.944;5.928;2023-08-07T02:13:46;17.00;99.90
53422;DHT22;39319;52.944;5.928;2023-08-07T02:16:12;17.00;99.90
53422;DHT22;39319;52.944;5.928;2023-08-07T02:18:37;16.90;99.90
53422;DHT22;39319;52.944;5.928;2023-08-07T02:21:03;17.10;99.90
53422;DHT22;39319;52.944;5.928;2023-08-07T02:23:29;17.00;99.90
53422;DHT22;39319;52.944;5.928;2023-08-07T02:25:54;17.00;99.90
53422;DHT22;39319;52.944;5.928;2023-08-07T02:28:20;16.90;99.90
53422;DHT22;39319;52.944;5.928;2023-08-07T02:30:46;16.90;99.90
53422;DHT22;39319;52.944;5.928;2023-08-07T02:33:16;16.90;99.90
53422;DHT22;39319;52.944;5.928;2023-08-07T02:35:42;16.90;99.90
53422;DHT22;39319;52.944;5.928;2023-08-07T02:38:08;16.80;99.90
53422;DHT22;39319;52.944;5.928;2023-08-07T02:40:33;16.90;99.90
53422;DHT22;39319;52.944;5.928;2023-08-07T02:42:59;16.90;99.90
53422;DHT22;39319;52.944;5.928;2023-08-07T02:45:25;16.90;99.90
53422;DHT22;39319;52.944;5.928;2023-08-07T02:47:51;16.90;99.90
53422;DHT22;39319;52.944;5.928;2023-08-07T02:50:16;16.80;99.90
53422;DHT22;39319;52.944;5.928;2023-08-07T02:52:42;16.80;99.90
53422;DHT22;39319;52.944;5.928;2023-08-07T02:55:08;16.80;99.90
53422;DHT22;39319;52.944;5.928;2023-08-07T02:57:34;16.80;99.90
53422;DHT22;39319;52.944;5.928;2023-08-07T02:59:59;16.90;99.90
53422;DHT22;39319;52.944;5.928;2023-08-07T03:02:25;16.80;99.90
53422;DHT22;39319;52.944;5.928;2023-08-07T03:04:51;16.80;99.90
53422;DHT22;39319;52.944;5.928;2023-08-07T03:07:16;16.90;99.90
53422;DHT22;39319;52.944;5.928;2023-08-07T03:09:45;16.90;99.90
53422;DHT22;39319;52.944;5.928;2023-08-07T03:12:12;16.90;99.90
53422;DHT22;39319;52.944;5.928;2023-08-07T03:14:37;16.90;99.90
53422;DHT22;39319;52.944;5.928;2023-08-07T03:17:03;16.90;99.90
53422;DHT22;39319;52.944;5.928;2023-08-07T03:19:29;16.90;99.90
53422;DHT22;39319;52.944;5.928;2023-08-07T03:21:55;16.90;99.90
53422;DHT22;39319;52.944;5.928;2023-08-07T03:24:20;16.90;99.90
53422;DHT22;39319;52.944;5.928;2023-08-07T03:26:46;16.90;99.90
53422;DHT22;39319;52.944;5.928;2023-08-07T03:29:13;16.90;99.90
53422;DHT22;39319;52.944;5.928;2023-08-07T03:31:39;16.90;99.90
53422;DHT22;39319;52.944;5.928;2023-08-07T03:34:04;16.90;99.90
53422;DHT22;39319;52.944;5.928;2023-08-07T03:36:30;16.90;99.90
53422;DHT22;39319;52.944;5.928;2023-08-07T03:38:55;16.90;99.90
53422;DHT22;39319;52.944;5.928;2023-08-07T03:41:21;16.90;99.90
53422;DHT22;39319;52.944;5.928;2023-08-07T03:43:47;16.90;99.90
53422;DHT22;39319;52.944;5.928;2023-08-07T03:46:13;17.00;99.90
53422;DHT22;39319;52.944;5.928;2023-08-07T03:48:38;17.00;99.90
53422;DHT22;39319;52.944;5.928;2023-08-07T03:51:07;17.00;99.90
53422;DHT22;39319;52.944;5.928;2023-08-07T03:53:33;17.00;99.90
53422;DHT22;39319;52.944;5.928;2023-08-07T03:55:59;17.00;99.90
53422;DHT22;39319;52.944;5.928;2023-08-07T03:58:25;17.00;99.90
53422;DHT22;39319;52.944;5.928;2023-08-07T04:00:51;17.00;99.90
53422;DHT22;39319;52.944;5.928;2023-08-07T04:03:19;17.00;99.90
53422;DHT22;39319;52.944;5.928;2023-08-07T04:05:45;17.00;99.90
53422;DHT22;39319;52.944;5.928;2023-08-07T04:08:11;17.00;99.90
53422;DHT22;39319;52.944;5.928;2023-08-07T04:10:36;17.00;99.90
53422;DHT22;39319;52.944;5.928;2023-08-07T04:13:02;17.00;99.90
53422;DHT22;39319;52.944;5.928;2023-08-07T04:15:28;17.00;99.90
53422;DHT22;39319;52.944;5.928;2023-08-07T04:17:54;17.00;99.90
53422;DHT22;39319;52.944;5.928;2023-08-07T04:20:20;17.00;99.90
53422;DHT22;39319;52.944;5.928;2023-08-07T04:22:46;17.00;99.90
53422;DHT22;39319;52.944;5.928;2023-08-07T04:25:12;17.00;99.90
53422;DHT22;39319;52.944;5.928;2023-08-07T04:27:38;16.90;99.90
53422;DHT22;39319;52.944;5.928;2023-08-07T04:30:05;16.90;99.90
53422;DHT22;39319;52.944;5.928;2023-08-07T04:32:31;16.90;99.90
53422;DHT22;39319;52.944;5.928;2023-08-07T04:34:57;16.80;99.90
53422;DHT22;39319;52.944;5.928;2023-08-07T04:37:23;16.80;99.90
53422;DHT22;39319;52.944;5.928;2023-08-07T04:39:48;16.70;99.90
53422;DHT22;39319;52.944;5.928;2023-08-07T04:42:16;16.70;99.90
53422;DHT22;39319;52.944;5.928;2023-08-07T04:44:42;16.70;99.90
53422;DHT22;39319;52.944;5.928;2023-08-07T04:47:08;16.80;99.90
53422;DHT22;39319;52.944;5.928;2023-08-07T04:49:33;16.70;99.90
53422;DHT22;39319;52.944;5.928;2023-08-07T04:51:59;16.70;99.90
53422;DHT22;39319;52.944;5.928;2023-08-07T04:54:25;16.70;99.90
53422;DHT22;39319;52.944;5.928;2023-08-07T04:56:51;16.70;99.90
53422;DHT22;39319;52.944;5.928;2023-08-07T04:59:16;16.70;99.90
53422;DHT22;39319;52.944;5.928;2023-08-07T05:01:42;16.70;99.90
53422;DHT22;39319;52.944;5.928;2023-08-07T05:04:08;16.60;99.90
53422;DHT22;39319;52.944;5.928;2023-08-07T05:06:34;16.70;99.90
53422;DHT22;39319;52.944;5.928;2023-08-07T05:08:59;16.60;99.90
53422;DHT22;39319;52.944;5.928;2023-08-07T05:11:25;16.60;99.90
53422;DHT22;39319;52.944;5.928;2023-08-07T05:13:51;16.70;99.90
53422;DHT22;39319;52.944;5.928;2023-08-07T05:16:16;16.70;99.90
53422;DHT22;39319;52.944;5.928;2023-08-07T05:18:44;16.70;99.90
53422;DHT22;39319;52.944;5.928;2023-08-07T05:21:10;16.80;99.90
53422;DHT22;39319;52.944;5.928;2023-08-07T05:23:35;16.80;99.90
53422;DHT22;39319;52.944;5.928;2023-08-07T05:26:01;16.80;99.90
53422;DHT22;39319;52.944;5.928;2023-08-07T05:28:27;16.80;99.90
53422;DHT22;39319;52.944;5.928;2023-08-07T05:30:53;16.80;99.90
53422;DHT22;39319;52.944;5.928;2023-08-07T05:33:19;16.80;99.90
53422;DHT22;39319;52.944;5.928;2023-08-07T05:35:44;16.90;99.90
53422;DHT22;39319;52.944;5.928;2023-08-07T05:38:10;16.90;99.90
53422;DHT22;39319;52.944;5.928;2023-08-07T05:40:36;16.80;99.90
53422;DHT22;39319;52.944;5.928;2023-08-07T05:43:02;16.90;99.90
53422;DHT22;39319;52.944;5.928;2023-08-07T05:45:28;16.80;99.90
53422;DHT22;39319;52.944;5.928;2023-08-07T05:47:53;16.80;99.90
53422;DHT22;39319;52.944;5.928;2023-08-07T05:50:19;16.80;99.90
53422;DHT22;39319;52.944;5.928;2023-08-07T05:52:45;16.90;99.90
53422;DHT22;39319;52.944;5.928;2023-08-07T05:55:11;16.90;99.90
53422;DHT22;39319;52.944;5.928;2023-08-07T05:57:36;16.90;99.90
53422;DHT22;39319;52.944;5.928;2023-08-07T06:00:03;16.90;99.90
53422;DHT22;39319;52.944;5.928;2023-08-07T06:02:29;17.00;99.90
53422;DHT22;39319;52.944;5.928;2023-08-07T06:04:54;17.00;99.90
53422;DHT22;39319;52.944;5.928;2023-08-07T06:07:20;17.00;99.90
53422;DHT22;39319;52.944;5.928;2023-08-07T06:09:46;17.00;99.90
53422;DHT22;39319;52.944;5.928;2023-08-07T06:12:12;16.90;99.90
53422;DHT22;39319;52.944;5.928;2023-08-07T06:14:37;17.00;99.90
53422;DHT22;39319;52.944;5.928;2023-08-07T06:17:04;17.00;99.90
53422;DHT22;39319;52.944;5.928;2023-08-07T06:19:29;17.00;99.90
53422;DHT22;39319;52.944;5.928;2023-08-07T06:21:55;17.00;99.90
53422;DHT22;39319;52.944;5.928;2023-08-07T06:24:22;17.00;99.90
53422;DHT22;39319;52.944;5.928;2023-08-07T06:26:47;17.00;99.90
53422;DHT22;39319;52.944;5.928;2023-08-07T06:29:13;17.10;99.90
53422;DHT22;39319;52.944;5.928;2023-08-07T06:31:39;17.00;99.90
53422;DHT22;39319;52.944;5.928;2023-08-07T06:34:05;17.00;99.90
53422;DHT22;39319;52.944;5.928;2023-08-07T06:36:30;17.00;99.90
53422;DHT22;39319;52.944;5.928;2023-08-07T06:38:56;17.00;99.90
53422;DHT22;39319;52.944;5.928;2023-08-07T06:41:26;17.10;99.90
53422;DHT22;39319;52.944;5.928;2023-08-07T06:43:52;17.10;99.90
53422;DHT22;39319;52.944;5.928;2023-08-07T06:46:18;17.00;99.90
53422;DHT22;39319;52.944;5.928;2023-08-07T06:48:44;17.00;99.90
53422;DHT22;39319;52.944;5.928;2023-08-07T06:51:10;17.10;99.90
53422;DHT22;39319;52.944;5.928;2023-08-07T06:53:36;17.10;99.90
53422;DHT22;39319;52.944;5.928;2023-08-07T06:56:01;17.10;99.90
53422;DHT22;39319;52.944;5.928;2023-08-07T06:58:30;17.20;99.90
53422;DHT22;39319;52.944;5.928;2023-08-07T07:00:58;17.10;99.90
53422;DHT22;39319;52.944;5.928;2023-08-07T07:03:24;17.10;99.90
53422;DHT22;39319;52.944;5.928;2023-08-07T07:05:50;17.10;99.90
53422;DHT22;39319;52.944;5.928;2023-08-07T07:08:15;17.10;99.90
53422;DHT22;39319;52.944;5.928;2023-08-07T07:10:41;17.10;99.90
53422;DHT22;39319;52.944;5.928;2023-08-07T07:13:07;17.10;99.90
53422;DHT22;39319;52.944;5.928;2023-08-07T07:15:34;17.10;99.90
53422;DHT22;39319;52.944;5.928;2023-08-07T07:18:01;17.20;99.90
53422;DHT22;39319;52.944;5.928;2023-08-07T07:20:27;17.20;99.90
53422;DHT22;39319;52.944;5.928;2023-08-07T07:22:53;17.20;99.90
53422;DHT22;39319;52.944;5.928;2023-08-07T07:25:18;17.10;99.90
53422;DHT22;39319;52.944;5.928;2023-08-07T07:27:44;17.10;99.90
53422;DHT22;39319;52.944;5.928;2023-08-07T07:30:10;17.10;99.90
53422;DHT22;39319;52.944;5.928;2023-08-07T07:32:38;17.20;99.90
53422;DHT22;39319;52.944;5.928;2023-08-07T07:35:04;17.20;99.90
53422;DHT22;39319;52.944;5.928;2023-08-07T07:37:30;17.20;99.90
53422;DHT22;39319;52.944;5.928;2023-08-07T07:39:57;17.30;99.90
53422;DHT22;39319;52.944;5.928;2023-08-07T07:42:22;17.30;99.90
53422;DHT22;39319;52.944;5.928;2023-08-07T07:44:48;17.40;99.90
53422;DHT22;39319;52.944;5.928;2023-08-07T07:47:14;17.50;99.90
53422;DHT22;39319;52.944;5.928;2023-08-07T07:49:45;17.50;99.90
53422;DHT22;39319;52.944;5.928;2023-08-07T07:52:11;17.60;99.90
53422;DHT22;39319;52.944;5.928;2023-08-07T07:54:37;17.70;99.90
53422;DHT22;39319;52.944;5.928;2023-08-07T07:57:02;17.80;99.90
53422;DHT22;39319;52.944;5.928;2023-08-07T07:59:28;17.70;99.90
53422;DHT22;39319;52.944;5.928;2023-08-07T08:01:54;17.80;99.90
53422;DHT22;39319;52.944;5.928;2023-08-07T08:04:20;17.70;99.70
53422;DHT22;39319;52.944;5.928;2023-08-07T08:06:45;17.40;99.90
53422;DHT22;39319;52.944;5.928;2023-08-07T08:09:13;17.20;99.90
53422;DHT22;39319;52.944;5.928;2023-08-07T08:11:39;17.10;99.90
53422;DHT22;39319;52.944;5.928;2023-08-07T08:14:05;17.00;99.90
53422;DHT22;39319;52.944;5.928;2023-08-07T08:16:30;17.00;99.90
53422;DHT22;39319;52.944;5.928;2023-08-07T08:18:56;16.90;99.90
53422;DHT22;39319;52.944;5.928;2023-08-07T08:21:22;16.80;99.90
53422;DHT22;39319;52.944;5.928;2023-08-07T08:23:48;16.90;99.90
53422;DHT22;39319;52.944;5.928;2023-08-07T08:26:13;16.90;99.90
53422;DHT22;39319;52.944;5.928;2023-08-07T08:28:39;16.90;99.90
53422;DHT22;39319;52.944;5.928;2023-08-07T08:31:05;17.00;99.90
53422;DHT22;39319;52.944;5.928;2023-08-07T08:33:31;17.10;99.90
53422;DHT22;39319;52.944;5.928;2023-08-07T08:35:57;17.10;99.90
53422;DHT22;39319;52.944;5.928;2023-08-07T08:38:23;17.20;99.90
53422;DHT22;39319;52.944;5.928;2023-08-07T08:40:51;17.30;99.90
53422;DHT22;39319;52.944;5.928;2023-08-07T08:43:18;17.50;99.90
53422;DHT22;39319;52.944;5.928;2023-08-07T08:45:45;17.50;99.90
53422;DHT22;39319;52.944;5.928;2023-08-07T08:48:16;17.60;99.10
53422;DHT22;39319;52.944;5.928;2023-08-07T08:50:48;17.70;98.70
53422;DHT22;39319;52.944;5.928;2023-08-07T08:53:16;17.70;98.60
53422;DHT22;39319;52.944;5.928;2023-08-07T08:55:42;17.90;98.10
53422;DHT22;39319;52.944;5.928;2023-08-07T08:58:15;18.00;97.50
53422;DHT22;39319;52.944;5.928;2023-08-07T09:00:44;18.10;97.20
53422;DHT22;39319;52.944;5.928;2023-08-07T09:03:11;20.10;97.20
53422;DHT22;39319;52.944;5.928;2023-08-07T09:05:37;18.20;96.90
53422;DHT22;39319;52.944;5.928;2023-08-07T09:08:03;18.30;96.50
53422;DHT22;39319;52.944;5.928;2023-08-07T09:10:31;18.40;96.80
53422;DHT22;39319;52.944;5.928;2023-08-07T09:13:02;18.40;96.60
53422;DHT22;39319;52.944;5.928;2023-08-07T09:15:32;18.40;96.50
53422;DHT22;39319;52.944;5.928;2023-08-07T09:17:59;18.30;96.90
53422;DHT22;39319;52.944;5.928;2023-08-07T09:20:26;18.20;97.00
53422;DHT22;39319;52.944;5.928;2023-08-07T09:22:52;18.20;97.30
53422;DHT22;39319;52.944;5.928;2023-08-07T09:25:31;18.20;97.70
53422;DHT22;39319;52.944;5.928;2023-08-07T09:27:57;18.30;97.70
53422;DHT22;39319;52.944;5.928;2023-08-07T09:30:26;18.40;97.70
53422;DHT22;39319;52.944;5.928;2023-08-07T09:32:53;18.50;97.60
53422;DHT22;39319;52.944;5.928;2023-08-07T09:35:22;18.70;97.00
53422;DHT22;39319;52.944;5.928;2023-08-07T09:37:51;18.80;96.60
53422;DHT22;39319;52.944;5.928;2023-08-07T09:40:18;18.90;96.40
53422;DHT22;39319;52.944;5.928;2023-08-07T09:42:43;19.10;96.10
53422;DHT22;39319;52.944;5.928;2023-08-07T09:47:56;19.20;95.90
53422;DHT22;39319;52.944;5.928;2023-08-07T09:50:22;19.20;95.30
53422;DHT22;39319;52.944;5.928;2023-08-07T09:52:51;19.10;94.90
53422;DHT22;39319;52.944;5.928;2023-08-07T09:55:19;19.20;95.20
53422;DHT22;39319;52.944;5.928;2023-08-07T09:57:45;19.20;94.80
53422;DHT22;39319;52.944;5.928;2023-08-07T10:00:12;19.30;94.80
53422;DHT22;39319;52.944;5.928;2023-08-07T10:02:41;19.40;94.30
53422;DHT22;39319;52.944;5.928;2023-08-07T10:05:09;19.30;94.50
53422;DHT22;39319;52.944;5.928;2023-08-07T10:07:39;19.30;94.80
53422;DHT22;39319;52.944;5.928;2023-08-07T10:10:06;19.20;95.00
53422;DHT22;39319;52.944;5.928;2023-08-07T10:12:32;19.30;94.70
53422;DHT22;39319;52.944;5.928;2023-08-07T10:15:02;19.30;94.20
53422;DHT22;39319;52.944;5.928;2023-08-07T10:17:28;19.30;94.00
53422;DHT22;39319;52.944;5.928;2023-08-07T10:19:55;19.40;94.60
53422;DHT22;39319;52.944;5.928;2023-08-07T10:22:23;19.50;95.00
53422;DHT22;39319;52.944;5.928;2023-08-07T10:24:50;19.70;94.90
53422;DHT22;39319;52.944;5.928;2023-08-07T10:27:20;19.80;94.20
53422;DHT22;39319;52.944;5.928;2023-08-07T10:29:48;19.90;94.10
53422;DHT22;39319;52.944;5.928;2023-08-07T10:32:17;20.00;94.20
53422;DHT22;39319;52.944;5.928;2023-08-07T10:34:49;20.10;93.80
53422;DHT22;39319;52.944;5.928;2023-08-07T10:37:44;20.20;92.80
53422;DHT22;39319;52.944;5.928;2023-08-07T10:40:12;20.00;93.00
53422;DHT22;39319;52.944;5.928;2023-08-07T10:43:12;20.00;93.30
53422;DHT22;39319;52.944;5.928;2023-08-07T10:45:38;19.90;93.50
53422;DHT22;39319;52.944;5.928;2023-08-07T10:48:18;20.20;93.90
53422;DHT22;39319;52.944;5.928;2023-08-07T10:56:02;20.10;92.60
53422;DHT22;39319;52.944;5.928;2023-08-07T10:58:33;20.00;92.80
53422;DHT22;39319;52.944;5.928;2023-08-07T11:03:58;20.20;92.80
53422;DHT22;39319;52.944;5.928;2023-08-07T11:06:29;20.50;92.50
53422;DHT22;39319;52.944;5.928;2023-08-07T11:09:06;20.70;92.10
53422;DHT22;39319;52.944;5.928;2023-08-07T11:11:53;20.90;92.10
53422;DHT22;39319;52.944;5.928;2023-08-07T11:14:20;20.90;91.30
53422;DHT22;39319;52.944;5.928;2023-08-07T11:16:48;21.00;91.50
53422;DHT22;39319;52.944;5.928;2023-08-07T11:19:15;21.00;91.40
53422;DHT22;39319;52.944;5.928;2023-08-07T11:21:41;21.00;91.20
53422;DHT22;39319;52.944;5.928;2023-08-07T11:24:08;21.10;91.10
53422;DHT22;39319;52.944;5.928;2023-08-07T11:26:34;20.90;90.90
53422;DHT22;39319;52.944;5.928;2023-08-07T11:28:59;20.80;91.00
53422;DHT22;39319;52.944;5.928;2023-08-07T11:31:25;20.80;91.10
53422;DHT22;39319;52.944;5.928;2023-08-07T11:33:55;20.70;91.30
53422;DHT22;39319;52.944;5.928;2023-08-07T11:36:23;20.70;91.40
53422;DHT22;39319;52.944;5.928;2023-08-07T11:38:49;20.80;91.60
53422;DHT22;39319;52.944;5.928;2023-08-07T11:41:16;20.90;91.60
53422;DHT22;39319;52.944;5.928;2023-08-07T11:43:42;20.90;90.70
53422;DHT22;39319;52.944;5.928;2023-08-07T11:46:13;20.80;91.00
53422;DHT22;39319;52.944;5.928;2023-08-07T11:48:40;20.60;91.70
53422;DHT22;39319;52.944;5.928;2023-08-07T11:51:07;20.50;91.10
53422;DHT22;39319;52.944;5.928;2023-08-07T11:53:38;20.40;91.30
53422;DHT22;39319;52.944;5.928;2023-08-07T11:56:08;20.30;91.20
53422;DHT22;39319;52.944;5.928;2023-08-07T11:58:47;20.20;91.90
53422;DHT22;39319;52.944;5.928;2023-08-07T12:01:24;20.10;92.10
53422;DHT22;39319;52.944;5.928;2023-08-07T12:04:08;20.10;92.70
53422;DHT22;39319;52.944;5.928;2023-08-07T12:06:34;19.90;93.10
53422;DHT22;39319;52.944;5.928;2023-08-07T12:09:07;20.00;93.60
53422;DHT22;39319;52.944;5.928;2023-08-07T12:11:38;19.90;93.50
53422;DHT22;39319;52.944;5.928;2023-08-07T12:14:03;19.90;93.40
53422;DHT22;39319;52.944;5.928;2023-08-07T12:16:34;19.90;94.00
53422;DHT22;39319;52.944;5.928;2023-08-07T12:19:00;19.80;95.10
53422;DHT22;39319;52.944;5.928;2023-08-07T12:21:26;19.60;95.80
53422;DHT22;39319;52.944;5.928;2023-08-07T12:23:56;19.40;96.30
53422;DHT22;39319;52.944;5.928;2023-08-07T12:26:22;19.20;96.90
53422;DHT22;39319;52.944;5.928;2023-08-07T12:28:48;19.20;97.30
53422;DHT22;39319;52.944;5.928;2023-08-07T12:31:14;19.00;97.90
53422;DHT22;39319;52.944;5.928;2023-08-07T12:33:40;19.00;98.40
53422;DHT22;39319;52.944;5.928;2023-08-07T12:36:05;19.10;98.60
53422;DHT22;39319;52.944;5.928;2023-08-07T12:38:32;19.30;98.90
53422;DHT22;39319;52.944;5.928;2023-08-07T12:40:57;19.40;98.20
53422;DHT22;39319;52.944;5.928;2023-08-07T12:43:25;19.50;97.90
53422;DHT22;39319;52.944;5.928;2023-08-07T12:45:50;19.50;97.60
53422;DHT22;39319;52.944;5.928;2023-08-07T12:48:18;19.50;97.70
53422;DHT22;39319;52.944;5.928;2023-08-07T12:50:44;19.50;98.00
53422;DHT22;39319;52.944;5.928;2023-08-07T12:53:10;19.50;97.80
53422;DHT22;39319;52.944;5.928;2023-08-07T12:55:35;19.50;97.70
53422;DHT22;39319;52.944;5.928;2023-08-07T12:58:01;19.50;98.30
53422;DHT22;39319;52.944;5.928;2023-08-07T13:00:27;19.40;98.50
53422;DHT22;39319;52.944;5.928;2023-08-07T13:02:53;19.40;99.40
53422;DHT22;39319;52.944;5.928;2023-08-07T13:05:21;19.40;98.70
53422;DHT22;39319;52.944;5.928;2023-08-07T13:07:47;19.30;97.90
53422;DHT22;39319;52.944;5.928;2023-08-07T13:10:16;19.20;97.80
53422;DHT22;39319;52.944;5.928;2023-08-07T13:12:44;19.10;97.90
53422;DHT22;39319;52.944;5.928;2023-08-07T13:15:12;19.10;98.20
53422;DHT22;39319;52.944;5.928;2023-08-07T13:17:42;19.30;99.70
53422;DHT22;39319;52.944;5.928;2023-08-07T13:20:10;19.50;98.70
53422;DHT22;39319;52.944;5.928;2023-08-07T13:22:38;19.50;98.00
53422;DHT22;39319;52.944;5.928;2023-08-07T13:25:05;19.50;97.50
53422;DHT22;39319;52.944;5.928;2023-08-07T13:27:31;19.50;97.70
53422;DHT22;39319;52.944;5.928;2023-08-07T13:29:58;19.40;98.20
53422;DHT22;39319;52.944;5.928;2023-08-07T13:32:26;19.40;97.60
53422;DHT22;39319;52.944;5.928;2023-08-07T13:34:54;19.40;96.90
53422;DHT22;39319;52.944;5.928;2023-08-07T13:37:20;19.30;97.40
53422;DHT22;39319;52.944;5.928;2023-08-07T13:39:45;19.20;97.50
53422;DHT22;39319;52.944;5.928;2023-08-07T13:42:13;19.30;97.50
53422;DHT22;39319;52.944;5.928;2023-08-07T13:44:39;19.20;97.50
53422;DHT22;39319;52.944;5.928;2023-08-07T13:47:05;19.30;97.90
53422;DHT22;39319;52.944;5.928;2023-08-07T13:49:32;19.40;98.20
53422;DHT22;39319;52.944;5.928;2023-08-07T13:51:58;19.50;96.80
53422;DHT22;39319;52.944;5.928;2023-08-07T13:54:23;19.50;96.70
53422;DHT22;39319;52.944;5.928;2023-08-07T13:56:49;19.50;96.40
53422;DHT22;39319;52.944;5.928;2023-08-07T13:59:16;19.50;95.80
53422;DHT22;39319;52.944;5.928;2023-08-07T14:01:41;19.40;95.60
53422;DHT22;39319;52.944;5.928;2023-08-07T14:04:07;19.40;96.10
53422;DHT22;39319;52.944;5.928;2023-08-07T14:06:33;19.30;96.70
53422;DHT22;39319;52.944;5.928;2023-08-07T14:08:59;19.40;95.80
53422;DHT22;39319;52.944;5.928;2023-08-07T14:11:25;19.30;96.50
53422;DHT22;39319;52.944;5.928;2023-08-07T14:13:59;19.40;96.10
53422;DHT22;39319;52.944;5.928;2023-08-07T14:16:25;19.60;96.30
53422;DHT22;39319;52.944;5.928;2023-08-07T14:18:51;19.70;95.60
53422;DHT22;39319;52.944;5.928;2023-08-07T14:21:17;19.80;95.60
53422;DHT22;39319;52.944;5.928;2023-08-07T14:23:42;19.90;95.20
53422;DHT22;39319;52.944;5.928;2023-08-07T14:26:11;20.00;94.70
53422;DHT22;39319;52.944;5.928;2023-08-07T14:28:37;20.00;94.70
53422;DHT22;39319;52.944;5.928;2023-08-07T14:31:06;20.20;94.20
53422;DHT22;39319;52.944;5.928;2023-08-07T14:33:32;20.20;93.20
53422;DHT22;39319;52.944;5.928;2023-08-07T14:35:58;20.20;93.20
53422;DHT22;39319;52.944;5.928;2023-08-07T14:38:23;20.30;93.00
53422;DHT22;39319;52.944;5.928;2023-08-07T14:40:49;20.20;93.40
53422;DHT22;39319;52.944;5.928;2023-08-07T14:43:15;20.10;93.60
53422;DHT22;39319;52.944;5.928;2023-08-07T14:45:43;20.10;93.10
53422;DHT22;39319;52.944;5.928;2023-08-07T14:48:08;20.10;93.30
53422;DHT22;39319;52.944;5.928;2023-08-07T14:50:36;20.10;93.10
53422;DHT22;39319;52.944;5.928;2023-08-07T14:53:02;20.00;92.80
53422;DHT22;39319;52.944;5.928;2023-08-07T14:55:28;20.00;92.50
53422;DHT22;39319;52.944;5.928;2023-08-07T14:57:53;19.80;92.80
53422;DHT22;39319;52.944;5.928;2023-08-07T15:00:19;19.70;93.30
53422;DHT22;39319;52.944;5.928;2023-08-07T15:02:46;19.60;93.90
53422;DHT22;39319;52.944;5.928;2023-08-07T15:05:13;19.60;93.60
53422;DHT22;39319;52.944;5.928;2023-08-07T15:07:38;19.70;93.30
53422;DHT22;39319;52.944;5.928;2023-08-07T15:10:04;19.60;93.40
53422;DHT22;39319;52.944;5.928;2023-08-07T15:12:30;19.50;93.10
53422;DHT22;39319;52.944;5.928;2023-08-07T15:14:56;19.60;93.40
53422;DHT22;39319;52.944;5.928;2023-08-07T15:17:22;19.70;93.00
53422;DHT22;39319;52.944;5.928;2023-08-07T15:19:47;20.00;92.60
53422;DHT22;39319;52.944;5.928;2023-08-07T15:22:13;20.30;92.50
53422;DHT22;39319;52.944;5.928;2023-08-07T15:24:39;20.60;92.10
53422;DHT22;39319;52.944;5.928;2023-08-07T15:27:05;20.70;91.40
53422;DHT22;39319;52.944;5.928;2023-08-07T15:29:31;20.60;91.20
53422;DHT22;39319;52.944;5.928;2023-08-07T15:31:57;20.50;91.50
53422;DHT22;39319;52.944;5.928;2023-08-07T15:34:22;20.40;92.00
53422;DHT22;39319;52.944;5.928;2023-08-07T15:36:48;20.20;91.60
53422;DHT22;39319;52.944;5.928;2023-08-07T15:39:14;20.00;92.10
53422;DHT22;39319;52.944;5.928;2023-08-07T15:41:39;20.00;91.40
53422;DHT22;39319;52.944;5.928;2023-08-07T15:44:05;19.90;91.40
53422;DHT22;39319;52.944;5.928;2023-08-07T15:46:31;19.90;91.40
53422;DHT22;39319;52.944;5.928;2023-08-07T15:48:57;20.00;91.80